createdAt,value
2018-09-05T00:00:28.914Z,79.70
2018-09-05T00:02:57.698Z,79.90
2018-09-05T00:05:26.535Z,80.60
2018-09-05T00:07:55.304Z,80.00
2018-09-05T00:10:24.100Z,80.30
2018-09-05T00:12:52.987Z,80.20
2018-09-05T00:15:21.857Z,80.20
2018-09-05T00:17:50.616Z,80.40
2018-09-05T00:20:19.410Z,80.30
2018-09-05T00:22:48.330Z,79.80
2018-09-05T00:25:17.138Z,79.70
2018-09-05T00:27:46.325Z,79.70
2018-09-05T00:30:15.138Z,79.80
2018-09-05T00:32:43.956Z,79.70
2018-09-05T00:35:12.811Z,79.70
2018-09-05T00:37:42.076Z,79.40
2018-09-05T00:40:10.839Z,79.70
2018-09-05T00:42:39.626Z,79.60
2018-09-05T00:45:08.426Z,79.60
2018-09-05T00:47:37.211Z,79.60
2018-09-05T00:50:06.264Z,80.20
2018-09-05T00:52:35.530Z,80.20
2018-09-05T00:55:04.397Z,80.20
2018-09-05T00:57:33.239Z,80.60
2018-09-05T01:00:02.037Z,81.10
2018-09-05T01:02:30.874Z,81.20
2018-09-05T01:04:59.767Z,81.30
2018-09-05T01:07:29.338Z,81.60
2018-09-05T01:09:58.169Z,82.40
2018-09-05T01:12:26.987Z,81.50
2018-09-05T01:14:56.128Z,81.10
2018-09-05T01:17:25.041Z,81.10
2018-09-05T01:19:53.970Z,81.40
2018-09-05T01:22:22.782Z,81.40
2018-09-05T01:24:51.640Z,81.50
2018-09-05T01:27:20.538Z,81.70
2018-09-05T01:29:49.346Z,82.00
2018-09-05T01:32:18.247Z,81.70
2018-09-05T01:34:47.119Z,81.70
2018-09-05T01:37:15.942Z,82.00
2018-09-05T01:39:45.041Z,81.50
2018-09-05T01:42:13.866Z,81.30
2018-09-05T01:44:42.706Z,81.30
2018-09-05T01:47:11.516Z,81.50
2018-09-05T01:49:40.479Z,82.30
2018-09-05T01:52:09.264Z,81.80
2018-09-05T01:54:40.958Z,81.80
2018-09-05T01:57:10.172Z,81.80
2018-09-05T01:59:38.972Z,82.10
2018-09-05T02:02:07.762Z,82.40
2018-09-05T02:04:36.646Z,82.50
2018-09-05T02:07:05.433Z,82.20
2018-09-05T02:09:34.378Z,82.20
2018-09-05T02:12:03.156Z,82.40
2018-09-05T02:14:31.952Z,82.70
2018-09-05T02:17:06.392Z,82.50
2018-09-05T02:19:35.188Z,82.80
2018-09-05T02:22:04.031Z,82.90
2018-09-05T02:24:32.874Z,82.80
2018-09-05T02:27:05.563Z,82.50
2018-09-05T02:29:34.578Z,82.50
2018-09-05T02:32:04.058Z,82.60
2018-09-05T02:34:32.900Z,82.60
2018-09-05T02:37:01.664Z,82.70
2018-09-05T02:39:30.435Z,82.70
2018-09-05T02:41:59.212Z,83.20
2018-09-05T02:44:28.111Z,82.70
2018-09-05T02:46:56.886Z,82.70
2018-09-05T02:49:25.736Z,82.60
2018-09-05T02:51:54.499Z,82.60
2018-09-05T02:54:23.530Z,82.70
2018-09-05T02:56:52.382Z,82.40
2018-09-05T02:59:21.202Z,82.70
2018-09-05T03:01:50.033Z,82.80
2018-09-05T03:04:20.876Z,82.80
2018-09-05T03:06:50.064Z,82.80
2018-09-05T03:09:19.818Z,82.70
2018-09-05T03:11:48.801Z,82.90
2018-09-05T03:14:17.578Z,83.20
2018-09-05T03:16:46.377Z,83.00
2018-09-05T03:19:15.158Z,82.90
2018-09-05T03:21:46.863Z,82.60
2018-09-05T03:24:15.703Z,82.40
2018-09-05T03:26:44.487Z,82.90
2018-09-05T03:29:13.240Z,82.80
2018-09-05T03:31:42.040Z,83.10
2018-09-05T03:34:10.794Z,82.70
2018-09-05T03:36:39.807Z,82.60
2018-09-05T03:39:10.509Z,82.70
2018-09-05T03:41:39.326Z,82.70
2018-09-05T03:44:08.125Z,82.70
2018-09-05T03:46:36.951Z,82.50
2018-09-05T03:49:05.926Z,82.40
2018-09-05T03:51:34.730Z,82.40
2018-09-05T03:54:03.585Z,82.60
2018-09-05T03:56:32.349Z,82.30
2018-09-05T03:59:01.169Z,82.50
2018-09-05T04:01:30.367Z,82.50
2018-09-05T04:03:59.189Z,82.70
2018-09-05T04:06:28.021Z,82.00
2018-09-05T04:08:56.841Z,82.30
2018-09-05T04:11:26.044Z,82.50
2018-09-05T04:13:54.865Z,82.30
2018-09-05T04:16:23.734Z,82.40
2018-09-05T04:18:52.571Z,82.50
2018-09-05T04:21:26.580Z,82.20
2018-09-05T04:23:55.811Z,82.50
2018-09-05T04:26:24.650Z,82.50
2018-09-05T04:28:53.485Z,82.70
2018-09-05T04:31:22.291Z,82.60
2018-09-05T04:33:51.085Z,82.60
2018-09-05T04:36:19.921Z,82.40
2018-09-05T04:38:48.717Z,82.20
2018-09-05T04:41:17.627Z,82.20
2018-09-05T04:43:46.429Z,82.00
2018-09-05T04:46:15.236Z,82.20
2018-09-05T04:48:44.076Z,82.20
2018-09-05T04:51:12.894Z,82.30
2018-09-05T04:53:41.645Z,82.30
2018-09-05T04:56:10.475Z,82.50
2018-09-05T04:58:39.280Z,82.20
2018-09-05T05:01:08.108Z,82.70
2018-09-05T05:03:36.928Z,83.50
2018-09-05T05:06:05.777Z,83.60
2018-09-05T05:08:34.552Z,83.60
2018-09-05T05:11:03.355Z,83.10
2018-09-05T05:13:32.159Z,83.00
2018-09-05T05:16:00.957Z,82.40
2018-09-05T05:18:29.752Z,82.30
2018-09-05T05:20:58.546Z,82.20
2018-09-05T05:23:27.364Z,80.20
2018-09-05T05:25:56.162Z,79.60
2018-09-05T05:28:25.006Z,78.50
2018-09-05T05:30:53.895Z,77.10
2018-09-05T05:33:22.720Z,76.20
2018-09-05T05:35:51.537Z,75.60
2018-09-05T05:38:20.355Z,74.30
2018-09-05T05:40:49.136Z,73.70
2018-09-05T05:43:17.947Z,72.70
2018-09-05T05:45:46.791Z,72.40
2018-09-05T05:48:17.329Z,71.40
2018-09-05T05:50:46.142Z,70.30
2018-09-05T05:53:14.967Z,69.80
2018-09-05T05:55:43.837Z,68.50
2018-09-05T05:58:12.653Z,67.20
2018-09-05T06:00:41.552Z,65.70
2018-09-05T06:03:10.336Z,64.60
2018-09-05T06:05:39.161Z,63.80
2018-09-05T06:08:07.960Z,62.00
2018-09-05T06:10:36.765Z,61.40
2018-09-05T06:13:05.593Z,60.70
2018-09-05T06:15:34.419Z,60.20
2018-09-05T06:18:03.298Z,59.80
2018-09-05T06:20:32.077Z,58.80
2018-09-05T06:23:00.842Z,58.80
2018-09-05T06:25:29.630Z,59.10
2018-09-05T06:27:58.582Z,58.30
2018-09-05T06:30:27.554Z,57.50
2018-09-05T06:32:56.355Z,56.40
2018-09-05T06:35:25.119Z,57.00
2018-09-05T06:37:53.974Z,57.00
2018-09-05T06:40:22.781Z,56.60
2018-09-05T06:42:51.666Z,56.20
2018-09-05T06:45:20.586Z,56.40
2018-09-05T06:47:49.320Z,56.20
2018-09-05T06:50:18.125Z,56.50
2018-09-05T06:52:50.838Z,55.50
2018-09-05T06:55:19.743Z,53.90
2018-09-05T06:57:48.741Z,54.30
2018-09-05T07:00:19.288Z,54.60
2018-09-05T07:02:48.704Z,54.30
2018-09-05T07:05:18.075Z,53.50
2018-09-05T07:07:46.921Z,53.50
2018-09-05T07:10:15.804Z,53.30
2018-09-05T07:12:44.613Z,52.90
2018-09-05T07:15:13.693Z,52.50
2018-09-05T07:17:42.548Z,54.80
2018-09-05T07:20:11.335Z,53.60
2018-09-05T07:22:40.188Z,53.50
2018-09-05T07:25:09.048Z,52.10
2018-09-05T07:27:37.791Z,51.50
2018-09-05T07:30:06.716Z,51.10
2018-09-05T07:32:35.497Z,53.40
2018-09-05T07:35:04.379Z,52.90
2018-09-05T07:37:33.246Z,50.80
2018-09-05T07:40:02.032Z,49.60
2018-09-05T07:42:31.235Z,50.30
2018-09-05T07:45:00.006Z,51.20
2018-09-05T07:47:28.861Z,50.30
2018-09-05T07:49:57.683Z,50.80
2018-09-05T07:52:26.492Z,50.40
2018-09-05T07:54:55.301Z,52.50
2018-09-05T07:57:24.161Z,50.60
2018-09-05T07:59:53.229Z,49.70
2018-09-05T08:02:22.124Z,50.00
2018-09-05T08:04:50.977Z,51.10
2018-09-05T08:07:19.775Z,51.80
2018-09-05T08:09:48.572Z,50.60
2018-09-05T08:12:17.355Z,49.90
2018-09-05T08:14:46.514Z,50.00
2018-09-05T08:17:15.264Z,50.80
2018-09-05T08:19:44.097Z,51.30
2018-09-05T08:22:12.945Z,50.50
2018-09-05T08:24:41.868Z,52.00
2018-09-05T08:27:10.644Z,53.30
2018-09-05T08:29:39.427Z,51.10
2018-09-05T08:32:08.255Z,49.80
2018-09-05T08:34:37.439Z,50.90
2018-09-05T08:37:06.506Z,52.00
2018-09-05T08:39:35.137Z,52.70
2018-09-05T08:42:04.178Z,53.90
2018-09-05T08:44:33.098Z,52.70
2018-09-05T08:47:01.829Z,51.90
2018-09-05T08:49:30.582Z,50.80
2018-09-05T08:51:59.419Z,50.30
2018-09-05T08:54:28.513Z,50.80
2018-09-05T08:56:57.398Z,49.90
2018-09-05T08:59:27.218Z,49.90
2018-09-05T09:01:56.028Z,50.40
2018-09-05T09:04:24.939Z,52.20
2018-09-05T09:06:53.675Z,50.00
2018-09-05T09:09:22.460Z,49.40
2018-09-05T09:11:51.252Z,49.00
2018-09-05T09:14:20.389Z,48.20
2018-09-05T09:16:49.217Z,47.60
2018-09-05T09:19:18.001Z,49.40
2018-09-05T09:21:46.848Z,48.70
2018-09-05T09:24:15.686Z,49.80
2018-09-05T09:26:44.496Z,49.60
2018-09-05T09:29:13.305Z,48.90
2018-09-05T09:31:42.085Z,49.80
2018-09-05T09:34:10.938Z,49.90
2018-09-05T09:36:39.708Z,47.80
2018-09-05T09:39:10.162Z,50.10
2018-09-05T09:41:39.449Z,48.20
2018-09-05T09:44:08.340Z,48.10
2018-09-05T09:46:37.260Z,49.50
2018-09-05T09:49:06.115Z,48.70
2018-09-05T09:51:34.922Z,49.20
2018-09-05T09:54:03.790Z,47.70
2018-09-05T09:56:32.547Z,48.10
2018-09-05T09:59:01.430Z,47.50
2018-09-05T10:01:35.564Z,46.70
2018-09-05T10:04:09.746Z,47.90
2018-09-05T10:06:41.130Z,48.20
2018-09-05T10:09:15.103Z,47.30
2018-09-05T10:11:49.797Z,46.70
2018-09-05T10:14:23.963Z,47.50
2018-09-05T10:16:58.202Z,48.10
2018-09-05T10:19:27.126Z,48.70
2018-09-05T10:21:56.019Z,46.90
2018-09-05T10:24:24.998Z,48.10
2018-09-05T10:26:54.030Z,47.70
2018-09-05T10:29:22.792Z,48.90
2018-09-05T10:31:51.653Z,48.60
2018-09-05T10:34:20.491Z,46.30
2018-09-05T10:36:49.332Z,47.40
2018-09-05T10:39:18.099Z,47.40
2018-09-05T10:41:46.968Z,47.40
2018-09-05T10:44:15.831Z,46.70
2018-09-05T10:46:44.602Z,45.90
2018-09-05T10:49:13.383Z,45.90
2018-09-05T10:51:47.517Z,45.70
2018-09-05T10:54:16.274Z,45.40
2018-09-05T10:56:45.059Z,44.00
2018-09-05T10:59:13.856Z,45.00
2018-09-05T11:01:42.838Z,45.40
2018-09-05T11:04:11.647Z,45.10
2018-09-05T11:06:40.494Z,45.20
2018-09-05T11:09:10.950Z,44.00
2018-09-05T11:11:40.404Z,43.60
2018-09-05T11:14:10.345Z,42.50
2018-09-05T11:16:39.488Z,43.20
2018-09-05T11:19:08.764Z,43.30
2018-09-05T11:21:37.718Z,42.60
2018-09-05T11:24:07.000Z,42.10
2018-09-05T11:26:35.853Z,41.70
2018-09-05T11:29:04.749Z,43.30
2018-09-05T11:31:33.506Z,43.10
2018-09-05T11:34:02.272Z,42.30
2018-09-05T11:36:31.451Z,42.20
2018-09-05T11:39:00.259Z,42.60
2018-09-05T11:41:29.033Z,42.90
2018-09-05T11:43:57.922Z,40.60
2018-09-05T11:46:26.681Z,40.40
2018-09-05T11:48:55.510Z,40.10
2018-09-05T11:51:24.331Z,40.20
2018-09-05T11:53:53.109Z,39.60
2018-09-05T11:56:21.899Z,38.60
2018-09-05T11:58:50.707Z,39.80
2018-09-05T12:01:19.475Z,39.20
2018-09-05T12:03:48.344Z,38.70
2018-09-05T12:06:17.286Z,41.90
2018-09-05T12:08:46.105Z,38.40
2018-09-05T12:11:14.865Z,37.50
2018-09-05T12:13:44.213Z,38.40
2018-09-05T12:16:13.005Z,38.30
2018-09-05T12:18:41.743Z,40.30
2018-09-05T12:21:10.964Z,38.70
2018-09-05T12:23:39.861Z,36.70
2018-09-05T12:26:08.661Z,37.80
2018-09-05T12:28:38.265Z,39.30
2018-09-05T12:31:07.135Z,39.80
2018-09-05T12:33:35.941Z,37.20
2018-09-05T12:36:04.770Z,35.80
2018-09-05T12:38:33.576Z,36.30
2018-09-05T12:41:02.346Z,37.10
2018-09-05T12:43:31.145Z,36.80
2018-09-05T12:45:59.917Z,36.80
2018-09-05T12:48:28.703Z,36.90
2018-09-05T12:50:57.549Z,35.50
2018-09-05T12:53:26.361Z,36.10
2018-09-05T12:55:55.125Z,35.70
2018-09-05T12:58:23.952Z,35.10
2018-09-05T13:00:52.804Z,35.30
2018-09-05T13:03:21.682Z,33.60
2018-09-05T13:05:50.484Z,33.60
2018-09-05T13:08:19.252Z,32.80
2018-09-05T13:10:48.049Z,32.50
2018-09-05T13:13:16.903Z,34.60
2018-09-05T13:15:46.185Z,35.30
2018-09-05T13:18:15.017Z,33.70
2018-09-05T13:20:44.688Z,32.90
2018-09-05T13:23:14.704Z,32.10
2018-09-05T13:25:43.617Z,34.10
2018-09-05T13:28:12.423Z,33.00
2018-09-05T13:30:41.197Z,34.20
2018-09-05T13:33:10.362Z,33.70
2018-09-05T13:35:39.150Z,32.90
2018-09-05T13:38:07.920Z,33.80
2018-09-05T13:40:36.888Z,33.40
2018-09-05T13:43:06.592Z,33.50
2018-09-05T13:45:36.172Z,35.00
2018-09-05T13:48:06.132Z,33.80
2018-09-05T13:50:35.064Z,34.00
2018-09-05T13:53:03.978Z,35.10
2018-09-05T13:55:32.855Z,34.30
2018-09-05T13:58:01.753Z,33.50
2018-09-05T14:00:30.524Z,33.30
2018-09-05T14:02:59.293Z,33.10
2018-09-05T14:05:28.116Z,33.50
2018-09-05T14:07:57.230Z,33.00
2018-09-05T14:10:26.421Z,33.30
2018-09-05T14:12:55.848Z,34.10
2018-09-05T14:15:25.542Z,33.20
2018-09-05T14:17:55.067Z,34.20
2018-09-05T14:20:24.578Z,33.50
2018-09-05T14:22:55.083Z,34.10
2018-09-05T14:25:25.156Z,33.80
2018-09-05T14:27:55.812Z,35.10
2018-09-05T14:30:28.096Z,33.00
2018-09-05T14:32:56.836Z,32.60
2018-09-05T14:35:27.266Z,32.50
2018-09-05T14:37:56.717Z,31.00
2018-09-05T14:40:26.068Z,32.50
2018-09-05T14:42:55.769Z,31.20
2018-09-05T14:45:25.088Z,31.90
2018-09-05T14:47:54.825Z,32.60
2018-09-05T14:50:23.628Z,32.60
2018-09-05T14:52:52.539Z,31.70
2018-09-05T14:55:21.362Z,33.30
2018-09-05T14:57:50.425Z,32.70
2018-09-05T15:00:19.208Z,32.20
2018-09-05T15:02:48.544Z,32.90
2018-09-05T15:05:17.305Z,33.30
2018-09-05T15:07:50.033Z,33.30
2018-09-05T15:10:18.913Z,32.60
2018-09-05T15:12:47.752Z,34.20
2018-09-05T15:15:17.252Z,33.50
2018-09-05T15:17:46.137Z,34.20
2018-09-05T15:20:15.424Z,33.10
2018-09-05T15:22:44.357Z,32.50
2018-09-05T15:25:13.279Z,32.70
2018-09-05T15:27:42.171Z,33.40
2018-09-05T15:30:11.228Z,33.50
2018-09-05T15:32:40.281Z,33.80
2018-09-05T15:35:09.148Z,34.50
2018-09-05T15:43:34.297Z,34.80
2018-09-05T15:46:03.244Z,34.30
2018-09-05T15:48:32.179Z,35.30
2018-09-05T15:51:02.519Z,34.90
2018-09-05T15:53:32.463Z,34.50
2018-09-05T15:56:01.272Z,34.10
2018-09-05T15:58:30.152Z,34.10
2018-09-05T16:00:59.321Z,34.10
2018-09-05T16:03:28.231Z,34.50
2018-09-05T16:05:58.485Z,33.90
2018-09-05T16:08:27.520Z,35.40
2018-09-05T16:10:56.839Z,35.40
2018-09-05T16:13:26.721Z,35.70
2018-09-05T16:15:58.687Z,34.90
2018-09-05T16:18:29.132Z,35.50
2018-09-05T16:20:59.315Z,35.60
2018-09-05T16:23:28.983Z,36.30
2018-09-05T16:25:58.260Z,36.80
2018-09-05T16:28:27.285Z,37.20
2018-09-05T16:30:56.608Z,38.20
2018-09-05T16:33:26.108Z,36.90
2018-09-05T16:35:55.469Z,37.90
2018-09-05T16:38:25.415Z,38.20
2018-09-05T16:40:54.930Z,38.70
2018-09-05T16:43:24.450Z,38.70
2018-09-05T16:45:53.436Z,38.60
2018-09-05T16:48:23.147Z,38.80
2018-09-05T16:50:53.099Z,39.60
2018-09-05T16:53:23.200Z,39.50
2018-09-05T16:55:53.859Z,40.10
2018-09-05T16:58:23.669Z,39.90
2018-09-05T17:00:53.308Z,40.50
2018-09-05T17:03:23.157Z,40.50
2018-09-05T17:05:52.598Z,40.60
2018-09-05T17:08:22.295Z,41.10
2018-09-05T17:10:51.679Z,41.60
2018-09-05T17:13:22.008Z,41.80
2018-09-05T17:15:52.740Z,42.50
2018-09-05T17:18:21.964Z,42.40
2018-09-05T17:20:52.213Z,43.10
2018-09-05T17:23:37.382Z,43.10
2018-09-05T17:26:08.670Z,43.70
2018-09-05T17:28:39.332Z,44.20
2018-09-05T17:31:09.461Z,44.50
2018-09-05T17:33:38.526Z,45.30
2018-09-05T17:36:08.095Z,45.50
2018-09-05T17:38:37.576Z,45.50
2018-09-05T17:41:07.074Z,45.80
2018-09-05T17:43:37.071Z,46.20
2018-09-05T17:46:07.170Z,47.20
2018-09-05T17:48:37.428Z,46.50
2018-09-05T17:51:06.944Z,46.40
2018-09-05T17:53:36.270Z,47.70
2018-09-05T17:56:05.524Z,46.70
2018-09-05T17:58:34.668Z,46.70
2018-09-05T18:01:06.146Z,47.00
2018-09-05T18:03:45.885Z,47.40
2018-09-05T18:06:14.808Z,47.30
2018-09-05T18:08:43.805Z,47.90
2018-09-05T18:11:13.113Z,48.20
2018-09-05T18:13:41.966Z,48.20
2018-09-05T18:16:10.836Z,48.10
2018-09-05T18:18:39.677Z,48.10
2018-09-05T18:21:08.440Z,48.30
2018-09-05T18:23:37.225Z,48.10
2018-09-05T18:26:06.262Z,48.70
2018-09-05T18:28:35.773Z,50.20
2018-09-05T18:31:04.961Z,49.60
2018-09-05T18:33:33.747Z,49.70
2018-09-05T18:36:03.221Z,49.60
2018-09-05T18:38:32.071Z,50.70
2018-09-05T18:41:07.317Z,56.50
2018-09-05T18:43:36.113Z,56.80
2018-09-05T18:46:10.412Z,57.80
2018-09-05T18:48:43.172Z,58.80
2018-09-05T18:51:14.130Z,59.40
2018-09-05T18:53:47.148Z,60.10
2018-09-05T18:56:19.799Z,60.10
2018-09-05T18:58:48.918Z,60.40
2018-09-05T19:01:18.433Z,61.50
2018-09-05T19:03:47.262Z,62.20
2018-09-05T19:06:16.338Z,62.70
2018-09-05T19:08:45.172Z,62.60
2018-09-05T19:11:15.625Z,62.70
2018-09-05T19:13:44.773Z,62.40
2018-09-05T19:16:14.609Z,60.70
2018-09-05T19:18:43.479Z,61.20
2018-09-05T19:21:12.317Z,60.30
2018-09-05T19:23:41.102Z,61.30
2018-09-05T19:26:09.958Z,61.60
2018-09-05T19:28:41.177Z,61.90
2018-09-05T19:31:09.950Z,61.50
2018-09-05T19:33:44.748Z,57.70
2018-09-05T19:36:13.822Z,56.30
2018-09-05T19:38:42.766Z,55.30
2018-09-05T19:41:11.648Z,55.00
2018-09-05T19:43:41.929Z,55.40
2018-09-05T19:46:11.833Z,56.50
2018-09-05T19:48:45.730Z,55.30
2018-09-05T19:51:15.181Z,55.30
2018-09-05T19:53:44.190Z,55.00
2018-09-05T19:56:13.074Z,55.10
2018-09-05T19:58:41.901Z,56.90
2018-09-05T20:01:10.681Z,58.30
2018-09-05T20:03:39.659Z,58.80
2018-09-05T20:06:08.544Z,59.10
2018-09-05T20:08:39.250Z,59.30
2018-09-05T20:11:09.665Z,59.80
2018-09-05T20:13:39.041Z,59.50
2018-09-05T20:16:08.185Z,58.60
2018-09-05T20:21:23.752Z,59.70
2018-09-05T20:23:52.553Z,58.30
2018-09-05T20:26:21.425Z,58.40
2018-09-05T20:28:51.136Z,58.00
2018-09-05T20:31:26.008Z,57.90
2018-09-05T20:33:55.027Z,59.00
2018-09-05T20:36:24.227Z,60.20
2018-09-05T20:38:54.084Z,60.70
2018-09-05T20:41:22.959Z,61.30
2018-09-05T20:43:51.759Z,60.60
2018-09-05T20:46:20.608Z,59.60
2018-09-05T20:48:49.471Z,59.90
2018-09-05T20:51:18.318Z,60.80
2018-09-05T20:53:47.121Z,61.20
2018-09-05T20:56:15.978Z,60.60
2018-09-05T20:58:44.843Z,60.30
2018-09-05T21:01:13.681Z,60.80
2018-09-05T21:03:42.460Z,60.10
2018-09-05T21:06:11.322Z,60.70
2018-09-05T21:08:40.185Z,61.00
2018-09-05T21:11:08.920Z,62.30
2018-09-05T21:13:37.824Z,62.80
2018-09-05T21:16:06.928Z,62.10
2018-09-05T21:18:35.720Z,64.00
2018-09-05T21:21:04.520Z,62.80
2018-09-05T21:23:33.360Z,64.50
2018-09-05T21:26:02.285Z,67.90
2018-09-05T21:28:31.083Z,68.10
2018-09-05T21:30:59.952Z,67.00
2018-09-05T21:33:35.595Z,65.00
2018-09-05T21:36:04.492Z,65.00
2018-09-05T21:38:33.282Z,64.30
2018-09-05T21:41:02.096Z,64.10
2018-09-05T21:43:30.888Z,64.40
2018-09-05T21:45:59.697Z,63.90
2018-09-05T21:48:28.616Z,64.10
2018-09-05T21:50:57.412Z,64.00
2018-09-05T21:53:26.189Z,64.00
2018-09-05T21:55:55.040Z,64.20
2018-09-05T21:58:23.843Z,64.90
2018-09-05T22:00:52.673Z,65.70
2018-09-05T22:03:21.490Z,65.60
2018-09-05T22:05:50.325Z,65.80
2018-09-05T22:08:19.119Z,65.70
2018-09-05T22:10:48.071Z,66.20
2018-09-05T22:13:16.916Z,65.90
2018-09-05T22:15:47.658Z,65.80
2018-09-05T22:18:17.464Z,65.90
2018-09-05T22:20:46.301Z,66.30
2018-09-05T22:23:24.263Z,67.00
2018-09-05T22:25:53.074Z,67.10
2018-09-05T22:28:22.042Z,67.50
2018-09-05T22:30:50.811Z,68.20
2018-09-05T22:33:19.612Z,68.20
2018-09-05T22:35:48.755Z,68.20
2018-09-05T22:38:17.538Z,68.70
2018-09-05T22:40:51.658Z,68.90
2018-09-05T22:43:31.461Z,68.70
2018-09-05T22:47:09.934Z,69.00
2018-09-05T22:52:14.106Z,69.10
2018-09-05T22:57:06.032Z,69.70
2018-09-05T23:00:48.861Z,70.30
2018-09-05T23:03:43.588Z,71.50
2018-09-05T23:07:27.110Z,72.00
2018-09-05T23:10:07.029Z,71.90
2018-09-05T23:12:46.958Z,72.00
2018-09-05T23:15:26.856Z,71.40
2018-09-05T23:18:06.840Z,71.00
2018-09-05T23:21:39.907Z,71.30
2018-09-05T23:24:09.899Z,71.40
2018-09-05T23:26:38.882Z,71.50
2018-09-05T23:29:07.699Z,72.00
2018-09-05T23:31:36.636Z,72.00
2018-09-05T23:34:05.443Z,72.40
2018-09-05T23:36:36.826Z,72.20
2018-09-05T23:39:09.920Z,71.40
2018-09-05T23:41:38.894Z,71.90
2018-09-05T23:44:07.695Z,72.00
2018-09-05T23:46:36.583Z,72.20
2018-09-05T23:49:05.495Z,73.00
2018-09-05T23:51:34.332Z,73.10
2018-09-05T23:54:03.226Z,73.10
2018-09-05T23:56:32.111Z,73.70
2018-09-05T23:59:05.421Z,74.00
